2006 XANGSANE (2006268N12129)


On this page: IBTrACS data - Map and Plots - Positions - Intensities - Original source data

Summary

Start Sep 25
End Oct 2
Basin WP
LMI 125 kt
Sources jtwc_wp
tokyo
cma
hko
In WMO? Yes
Previous storm 2006 THREE (EP)
Previous in basin 2006 TD0922 (WP)
Concurrent storms 2006 HELENE (NA)
2006 YAGI (WP)
2006 MUKDA (NI)
2006 TD0922 (WP)
2006 THREE (EP)
2006 XANGSANE (WP)
2006 MISSING (NI)
2006 ISAAC (NA)
2006 BEBINCA (WP)
2006 RUMBIA (WP)
Next in basin 2006 BEBINCA (WP)
Next storm 2006 MISSING (NI)

top of page IBTrACS Data: File Access

top of page HURSAT Data: File Access

Image of storm

top of page Plots:

Map of storm track will not appear if FTP is down
Time series of cyclone Maximum Sustained Wind will not appear if FTP is down
Time series of cyclone Minimum Central Pressure will not appear if FTP is down

top of page Track Data:Position

jtwc_wp tokyo cma hko
Date Lat Lon Lat Lon Lat Lon Lat Lon
2006-09-25 00:00:00 11.8 129.1 11.8 129.1
2006-09-25 06:00:00 11.5 128.4 11.8 128.8 11.8 128.8
2006-09-25 12:00:00 11.5 128.1 11.8 128.4 11.8 128.4 11.7 128.7
2006-09-25 18:00:00 11.6 127.8 11.9 128.1 11.8 128.1 11.8 128.1
2006-09-26 00:00:00 11.8 127.6 11.9 127.6 11.8 127.6 11.9 127.6
2006-09-26 06:00:00 11.9 127.3 12.0 127.2 11.9 127.2 12.0 127.2
2006-09-26 12:00:00 12.1 126.8 12.2 126.8 12.2 126.8 12.1 126.8
2006-09-26 18:00:00 12.2 126.2 12.3 126.1 12.3 126.1 12.3 126.2
2006-09-27 00:00:00 12.4 125.5 12.5 125.5 12.5 125.5 12.5 125.5
2006-09-27 06:00:00 12.8 124.7 12.9 124.6 12.9 124.6 12.9 124.6
2006-09-27 12:00:00 13.2 123.6 13.2 123.6 13.2 123.6 13.1 123.8
2006-09-27 18:00:00 13.5 122.5 13.6 122.7 13.6 122.7 13.6 122.7
2006-09-28 00:00:00 14.1 121.6 13.9 121.7 14.0 121.7 14.1 121.6
2006-09-28 06:00:00 14.8 120.5 14.6 120.4 14.6 120.4 14.6 120.4
2006-09-28 12:00:00 15.1 119.6 15.2 119.3 15.2 119.3 15.3 119.3
2006-09-28 18:00:00 15.2 117.9 15.0 118.0 15.5 118.1 15.6 118.1
2006-09-29 00:00:00 15.2 116.6 15.3 116.8 15.4 116.9 15.4 117.0
2006-09-29 06:00:00 15.4 115.5 15.6 115.7 15.6 115.7 15.5 115.7
2006-09-29 12:00:00 15.6 114.4 15.7 114.5 15.7 114.4 15.6 114.4
2006-09-29 18:00:00 15.5 113.3 15.6 113.3 15.6 113.3 15.6 113.3
2006-09-30 00:00:00 15.5 112.3 15.6 112.5 15.6 112.5 15.6 112.5
2006-09-30 06:00:00 15.7 111.4 15.7 111.6 15.7 111.6 15.7 111.6
2006-09-30 12:00:00 16.0 110.5 16.0 110.7 16.0 110.7 15.9 110.6
2006-09-30 18:00:00 16.0 109.6 16.0 109.7 16.0 109.7 16.0 109.7
2006-10-01 00:00:00 16.0 108.6 16.1 108.6 16.1 108.6 16.1 108.7
jtwc_wp tokyo cma hko
2006-10-01 06:00:00 15.7 107.4 15.6 107.4 15.8 107.4 15.8 107.4
2006-10-01 12:00:00 15.6 106.2 15.4 106.4 15.4 106.4 15.4 106.4
2006-10-01 18:00:00 14.9 105.6 15.7 105.5 15.7 105.5 15.4 104.8
2006-10-02 00:00:00 15.1 104.0 15.7 104.4 15.7 104.4 15.6 103.8
2006-10-02 06:00:00 15.7 104.1 15.7 104.1
2006-10-02 12:00:00 15.8 103.8 15.8 103.8

top of pageTrack Data:Intensity

jtwc_wp tokyo cma hko
Date Wind Pres Wind Pres Wind Pres Wind Pres
2006-09-25 00:00:00 1008. 23. 1004.
2006-09-25 06:00:00 20. 1004. 1006. 29. 1002.
2006-09-25 12:00:00 25. 1002. 1004. 29. 1000. 25. 1000.
2006-09-25 18:00:00 30. 1000. 1002. 29. 1000. 30. 998.
2006-09-26 00:00:00 35. 997. 35. 1000. 35. 996. 35. 996.
2006-09-26 06:00:00 45. 991. 50. 985. 45. 990. 40. 992.
2006-09-26 12:00:00 55. 984. 60. 975. 54. 985. 45. 988.
2006-09-26 18:00:00 65. 976. 65. 970. 64. 975. 50. 984.
2006-09-27 00:00:00 90. 954. 75. 960. 78. 965. 60. 975.
2006-09-27 06:00:00 115. 927. 85. 940. 97. 945. 70. 965.
2006-09-27 12:00:00 125. 916. 75. 950. 87. 950. 75. 960.
2006-09-27 18:00:00 120. 922. 70. 960. 78. 960. 80. 955.
2006-09-28 00:00:00 110. 933. 65. 970. 78. 960. 80. 955.
2006-09-28 06:00:00 105. 938. 60. 975. 68. 970. 80. 955.
2006-09-28 12:00:00 100. 944. 60. 975. 68. 970. 80. 955.
2006-09-28 18:00:00 90. 954. 65. 965. 68. 970. 80. 955.
2006-09-29 00:00:00 105. 938. 70. 960. 78. 960. 80. 955.
2006-09-29 06:00:00 105. 938. 75. 960. 78. 960. 80. 955.
2006-09-29 12:00:00 110. 933. 75. 955. 87. 950. 85. 950.
2006-09-29 18:00:00 115. 927. 80. 950. 87. 950. 95. 940.
2006-09-30 00:00:00 115. 927. 80. 950. 87. 950. 105. 930.
2006-09-30 06:00:00 115. 927. 80. 950. 87. 950. 105. 930.
2006-09-30 12:00:00 110. 933. 75. 960. 87. 950. 100. 935.
2006-09-30 18:00:00 95. 949. 75. 965. 87. 955. 95. 940.
2006-10-01 00:00:00 85. 958. 70. 965. 78. 960. 85. 950.
jtwc_wp tokyo cma hko
2006-10-01 06:00:00 75. 967. 65. 970. 64. 975. 70. 965.
2006-10-01 12:00:00 55. 984. 55. 980. 49. 990. 55. 980.
2006-10-01 18:00:00 40. 994. 40. 996. 35. 995. 40. 992.
2006-10-02 00:00:00 35. 997. 1000. 29. 1000. 25. 1000.
2006-10-02 06:00:00 1000. 23. 1002.
2006-10-02 12:00:00 1002. 19. 1002.

top of page Links to source data

Source Source file Format
jtwc_wp bwp182006.txt ATCF
tokyo bst_all.txt:Line=55965:XANGSANE:615 JMA text table
cma CH2006BST.txt:Storm=20:Xangsane CMA text table
hko tc-besttrack-data.txt:Line=32261:XANGSANE HKO Text table